createdAt,value
2023-04-26T00:00:59.855Z,536.00
2023-04-26T00:01:59.876Z,540.00
2023-04-26T00:03:00.141Z,545.00
2023-04-26T00:04:00.027Z,534.00
2023-04-26T00:05:00.109Z,539.00
2023-04-26T00:05:59.944Z,546.00
2023-04-26T00:06:59.992Z,539.00
2023-04-26T00:07:59.985Z,540.00
2023-04-26T00:09:00.264Z,538.00
2023-04-26T00:10:00.038Z,547.00
2023-04-26T00:11:00.051Z,544.00
2023-04-26T00:12:00.089Z,536.00
2023-04-26T00:13:00.124Z,538.00
2023-04-26T00:14:00.269Z,541.00
2023-04-26T00:15:00.173Z,542.00
2023-04-26T00:16:00.272Z,538.00
2023-04-26T00:17:00.188Z,535.00
2023-04-26T00:18:00.286Z,543.00
2023-04-26T00:19:00.197Z,537.00
2023-04-26T00:20:00.243Z,539.00
2023-04-26T00:21:00.243Z,543.00
2023-04-26T00:22:00.247Z,542.00
2023-04-26T00:23:00.298Z,538.00
2023-04-26T00:24:00.285Z,543.00
2023-04-26T00:25:00.297Z,538.00
2023-04-26T00:26:00.354Z,539.00
2023-04-26T00:27:00.387Z,532.00
2023-04-26T00:28:00.385Z,536.00
2023-04-26T00:29:00.410Z,544.00
2023-04-26T00:30:00.401Z,540.00
2023-04-26T00:31:00.459Z,539.00
2023-04-26T00:32:00.518Z,545.00
2023-04-26T00:33:00.496Z,535.00
2023-04-26T00:34:00.511Z,536.00
2023-04-26T00:35:00.569Z,532.00
2023-04-26T00:36:00.558Z,544.00
2023-04-26T00:37:00.572Z,535.00
2023-04-26T00:38:00.565Z,540.00
2023-04-26T00:39:00.649Z,539.00
2023-04-26T00:40:00.604Z,545.00
2023-04-26T00:41:00.623Z,536.00
2023-04-26T00:42:00.676Z,535.00
2023-04-26T00:43:00.668Z,539.00
2023-04-26T00:44:00.719Z,537.00
2023-04-26T00:45:00.720Z,540.00
2023-04-26T00:46:00.781Z,536.00
2023-04-26T00:47:00.735Z,542.00
2023-04-26T00:48:00.786Z,540.00
2023-04-26T00:49:00.803Z,545.00
2023-04-26T00:50:00.795Z,538.00
2023-04-26T00:51:00.805Z,536.00
2023-04-26T00:52:00.873Z,542.00
2023-04-26T00:53:00.888Z,544.00
2023-04-26T00:54:00.865Z,547.00
2023-04-26T00:55:00.881Z,539.00
2023-04-26T00:56:00.913Z,544.00
2023-04-26T00:57:00.912Z,544.00
2023-04-26T00:58:00.953Z,547.00
2023-04-26T00:59:00.962Z,548.00
2023-04-26T01:00:00.996Z,551.00
2023-04-26T01:01:01.067Z,546.00
2023-04-26T01:02:01.059Z,543.00
2023-04-26T01:03:01.167Z,538.00
2023-04-26T01:04:01.272Z,543.00
2023-04-26T01:05:01.062Z,548.00
2023-04-26T01:06:01.141Z,545.00
2023-04-26T01:07:01.139Z,547.00
2023-04-26T01:08:01.119Z,548.00
2023-04-26T01:09:01.167Z,548.00
2023-04-26T01:10:01.162Z,550.00
2023-04-26T01:11:01.196Z,542.00
2023-04-26T01:12:01.222Z,549.00
2023-04-26T01:13:01.230Z,545.00
2023-04-26T01:14:01.249Z,548.00
2023-04-26T01:15:01.235Z,547.00
2023-04-26T01:16:01.285Z,550.00
2023-04-26T01:17:01.378Z,552.00
2023-04-26T01:18:01.320Z,552.00
2023-04-26T01:19:01.320Z,549.00
2023-04-26T01:20:01.422Z,551.00
2023-04-26T01:21:03.219Z,548.00
2023-04-26T01:22:01.383Z,550.00
2023-04-26T01:23:01.388Z,552.00
2023-04-26T01:24:01.451Z,557.00
2023-04-26T01:25:01.455Z,552.00
2023-04-26T01:26:01.455Z,550.00
2023-04-26T01:27:01.503Z,556.00
2023-04-26T01:28:01.534Z,557.00
2023-04-26T01:29:01.513Z,554.00
2023-04-26T01:30:01.546Z,556.00
2023-04-26T01:31:01.656Z,560.00
2023-04-26T01:32:01.604Z,556.00
2023-04-26T01:33:01.639Z,555.00
2023-04-26T01:34:01.834Z,554.00
2023-04-26T01:35:01.629Z,560.00
2023-04-26T01:36:01.669Z,556.00
2023-04-26T01:37:01.691Z,559.00
2023-04-26T01:38:01.751Z,560.00
2023-04-26T01:39:01.743Z,558.00
2023-04-26T01:40:01.768Z,556.00
2023-04-26T01:41:01.792Z,559.00
2023-04-26T01:42:01.774Z,560.00
2023-04-26T01:43:01.846Z,558.00
2023-04-26T01:44:01.849Z,560.00
2023-04-26T01:45:01.870Z,561.00
2023-04-26T01:46:02.005Z,553.00
2023-04-26T01:47:01.922Z,556.00
2023-04-26T01:48:02.015Z,558.00
2023-04-26T01:49:01.921Z,553.00
2023-04-26T01:50:01.952Z,552.00
2023-04-26T01:51:02.006Z,555.00
2023-04-26T01:52:02.014Z,550.00
2023-04-26T01:53:02.030Z,552.00
2023-04-26T01:54:02.058Z,549.00
2023-04-26T01:55:02.065Z,548.00
2023-04-26T01:56:02.109Z,551.00
2023-04-26T01:57:02.144Z,550.00
2023-04-26T01:58:02.203Z,546.00
2023-04-26T01:59:02.172Z,553.00
2023-04-26T02:00:02.237Z,552.00
2023-04-26T02:01:02.210Z,551.00
2023-04-26T02:02:02.356Z,546.00
2023-04-26T02:03:02.339Z,548.00
2023-04-26T02:04:02.292Z,545.00
2023-04-26T02:05:02.393Z,548.00
2023-04-26T02:06:02.337Z,545.00
2023-04-26T02:07:02.354Z,545.00
2023-04-26T02:08:02.353Z,540.00
2023-04-26T02:09:02.391Z,541.00
2023-04-26T02:10:02.397Z,549.00
2023-04-26T02:11:02.447Z,548.00
2023-04-26T02:12:02.453Z,549.00
2023-04-26T02:13:02.484Z,547.00
2023-04-26T02:14:02.504Z,549.00
2023-04-26T02:15:02.544Z,551.00
2023-04-26T02:16:02.551Z,549.00
2023-04-26T02:17:02.615Z,546.00
2023-04-26T02:18:02.650Z,550.00
2023-04-26T02:19:02.626Z,555.00
2023-04-26T02:20:02.665Z,550.00
2023-04-26T02:21:02.702Z,545.00
2023-04-26T02:22:02.696Z,547.00
2023-04-26T02:23:02.751Z,551.00
2023-04-26T02:24:02.785Z,548.00
2023-04-26T02:25:02.780Z,543.00
2023-04-26T02:26:02.809Z,545.00
2023-04-26T02:27:02.824Z,547.00
2023-04-26T02:28:02.849Z,548.00
2023-04-26T02:29:03.341Z,551.00
2023-04-26T02:30:02.902Z,550.00
2023-04-26T02:31:02.966Z,552.00
2023-04-26T02:32:02.936Z,551.00
2023-04-26T02:33:03.017Z,551.00
2023-04-26T02:34:03.019Z,551.00
2023-04-26T02:35:03.036Z,553.00
2023-04-26T02:36:03.072Z,557.00
2023-04-26T02:37:03.109Z,555.00
2023-04-26T02:38:03.080Z,552.00
2023-04-26T02:39:03.353Z,553.00
2023-04-26T02:40:03.128Z,557.00
2023-04-26T02:41:03.166Z,551.00
2023-04-26T02:42:03.156Z,554.00
2023-04-26T02:43:03.183Z,552.00
2023-04-26T02:44:03.223Z,549.00
2023-04-26T02:45:03.223Z,555.00
2023-04-26T02:46:03.256Z,548.00
2023-04-26T02:47:03.347Z,551.00
2023-04-26T02:48:03.364Z,544.00
2023-04-26T02:49:03.312Z,546.00
2023-04-26T02:50:03.338Z,543.00
2023-04-26T02:51:03.340Z,547.00
2023-04-26T02:52:03.373Z,544.00
2023-04-26T02:53:03.371Z,542.00
2023-04-26T02:54:05.709Z,543.00
2023-04-26T02:55:03.428Z,552.00
2023-04-26T02:56:03.405Z,548.00
2023-04-26T02:57:03.394Z,549.00
2023-04-26T02:58:03.395Z,548.00
2023-04-26T02:59:03.385Z,547.00
2023-04-26T03:00:03.344Z,544.00
2023-04-26T03:01:03.395Z,547.00
2023-04-26T03:02:03.365Z,544.00
2023-04-26T03:03:03.481Z,543.00
2023-04-26T03:04:03.895Z,542.00
2023-04-26T03:05:03.327Z,543.00
2023-04-26T03:06:03.329Z,544.00
2023-04-26T03:07:03.322Z,545.00
2023-04-26T03:08:03.314Z,548.00
2023-04-26T03:09:03.314Z,546.00
2023-04-26T03:10:03.318Z,549.00
2023-04-26T03:11:03.290Z,549.00
2023-04-26T03:12:03.332Z,545.00
2023-04-26T03:13:03.327Z,553.00
2023-04-26T03:14:03.291Z,550.00
2023-04-26T03:15:03.255Z,548.00
2023-04-26T03:16:03.297Z,555.00
2023-04-26T03:17:03.251Z,555.00
2023-04-26T03:18:03.315Z,549.00
2023-04-26T03:19:03.256Z,553.00
2023-04-26T03:20:03.240Z,542.00
2023-04-26T03:21:03.207Z,546.00
2023-04-26T03:22:03.246Z,552.00
2023-04-26T03:23:03.209Z,550.00
2023-04-26T03:24:03.373Z,551.00
2023-04-26T03:25:03.213Z,550.00
2023-04-26T03:26:03.213Z,547.00
2023-04-26T03:27:03.201Z,546.00
2023-04-26T03:28:03.192Z,549.00
2023-04-26T03:29:03.860Z,547.00
2023-04-26T03:30:03.189Z,548.00
2023-04-26T03:31:03.209Z,547.00
2023-04-26T03:32:03.199Z,539.00
2023-04-26T03:33:03.172Z,545.00
2023-04-26T03:34:03.193Z,542.00
2023-04-26T03:35:03.165Z,549.00
2023-04-26T03:36:03.162Z,549.00
2023-04-26T03:37:03.118Z,543.00
2023-04-26T03:38:03.153Z,545.00
2023-04-26T03:39:03.110Z,545.00
2023-04-26T03:40:03.343Z,543.00
2023-04-26T03:41:03.114Z,542.00
2023-04-26T03:42:03.129Z,546.00
2023-04-26T03:43:03.064Z,543.00
2023-04-26T03:44:03.057Z,544.00
2023-04-26T03:45:03.111Z,545.00
2023-04-26T03:46:03.131Z,547.00
2023-04-26T03:47:03.078Z,548.00
2023-04-26T03:48:03.070Z,551.00
2023-04-26T03:49:03.077Z,543.00
2023-04-26T03:50:03.028Z,541.00
2023-04-26T03:51:03.010Z,544.00
2023-04-26T03:52:03.057Z,544.00
2023-04-26T03:53:03.026Z,547.00
2023-04-26T03:54:03.004Z,548.00
2023-04-26T03:55:03.376Z,550.00
2023-04-26T03:56:03.020Z,539.00
2023-04-26T03:57:03.044Z,549.00
2023-04-26T03:58:03.056Z,545.00
2023-04-26T03:59:03.105Z,543.00
2023-04-26T04:00:03.125Z,547.00
2023-04-26T04:01:03.151Z,548.00
2023-04-26T04:02:03.229Z,551.00
2023-04-26T04:03:03.439Z,549.00
2023-04-26T04:04:03.481Z,552.00
2023-04-26T04:05:03.325Z,550.00
2023-04-26T04:06:03.276Z,549.00
2023-04-26T04:07:03.333Z,546.00
2023-04-26T04:08:03.364Z,548.00
2023-04-26T04:09:03.388Z,547.00
2023-04-26T04:10:03.390Z,551.00
2023-04-26T04:11:03.426Z,547.00
2023-04-26T04:12:03.427Z,551.00
2023-04-26T04:13:03.441Z,546.00
2023-04-26T04:14:03.474Z,544.00
2023-04-26T04:15:03.513Z,546.00
2023-04-26T04:16:03.630Z,543.00
2023-04-26T04:17:03.555Z,548.00
2023-04-26T04:18:03.649Z,547.00
2023-04-26T04:19:03.621Z,546.00
2023-04-26T04:20:03.659Z,544.00
2023-04-26T04:21:03.663Z,540.00
2023-04-26T04:22:03.677Z,546.00
2023-04-26T04:23:03.734Z,552.00
2023-04-26T04:24:03.747Z,547.00
2023-04-26T04:25:03.833Z,549.00
2023-04-26T04:26:03.770Z,549.00
2023-04-26T04:27:03.814Z,554.00
2023-04-26T04:28:03.846Z,554.00
2023-04-26T04:29:03.893Z,554.00
2023-04-26T04:30:04.367Z,552.00
2023-04-26T04:31:03.998Z,556.00
2023-04-26T04:32:03.973Z,555.00
2023-04-26T04:33:04.032Z,563.00
2023-04-26T04:34:04.021Z,562.00
2023-04-26T04:35:04.026Z,563.00
2023-04-26T04:36:04.066Z,560.00
2023-04-26T04:37:04.110Z,568.00
2023-04-26T04:38:04.131Z,565.00
2023-04-26T04:39:04.194Z,561.00
2023-04-26T04:40:04.198Z,567.00
2023-04-26T04:41:04.237Z,569.00
2023-04-26T04:42:04.255Z,566.00
2023-04-26T04:43:04.293Z,567.00
2023-04-26T04:44:04.296Z,567.00
2023-04-26T04:45:04.336Z,569.00
2023-04-26T04:46:04.404Z,569.00
2023-04-26T04:47:04.401Z,568.00
2023-04-26T04:48:04.522Z,564.00
2023-04-26T04:49:04.458Z,564.00
2023-04-26T04:50:04.490Z,567.00
2023-04-26T04:51:04.538Z,562.00
2023-04-26T04:52:04.554Z,559.00
2023-04-26T04:53:04.588Z,563.00
2023-04-26T04:54:04.595Z,558.00
2023-04-26T04:55:04.630Z,562.00
2023-04-26T04:56:04.695Z,565.00
2023-04-26T04:57:04.685Z,567.00
2023-04-26T04:58:04.723Z,563.00
2023-04-26T04:59:04.748Z,562.00
2023-04-26T05:00:04.803Z,566.00
2023-04-26T05:01:04.796Z,597.00
2023-04-26T05:02:04.904Z,640.00
2023-04-26T05:03:05.148Z,613.00
2023-04-26T05:04:05.033Z,596.00
2023-04-26T05:05:05.254Z,588.00
2023-04-26T05:06:05.054Z,572.00
2023-04-26T05:07:05.098Z,560.00
2023-04-26T05:08:05.156Z,538.00
2023-04-26T05:09:05.166Z,520.00
2023-04-26T05:10:05.454Z,512.00
2023-04-26T05:11:05.200Z,504.00
2023-04-26T05:12:05.211Z,511.00
2023-04-26T05:13:05.253Z,505.00
2023-04-26T05:14:05.244Z,503.00
2023-04-26T05:15:05.255Z,514.00
2023-04-26T05:16:05.301Z,512.00
2023-04-26T05:17:05.304Z,525.00
2023-04-26T05:18:05.325Z,520.00
2023-04-26T05:19:06.641Z,517.00
2023-04-26T05:20:05.296Z,520.00
2023-04-26T05:21:05.277Z,523.00
2023-04-26T05:22:05.268Z,524.00
2023-04-26T05:23:05.335Z,515.00
2023-04-26T05:24:05.275Z,502.00
2023-04-26T05:25:05.271Z,511.00
2023-04-26T05:26:05.271Z,501.00
2023-04-26T05:27:05.239Z,508.00
2023-04-26T05:28:05.263Z,508.00
2023-04-26T05:29:05.284Z,512.00
2023-04-26T05:30:05.245Z,505.00
2023-04-26T05:31:05.212Z,506.00
2023-04-26T05:32:05.273Z,514.00
2023-04-26T05:33:05.333Z,514.00
2023-04-26T05:34:05.208Z,510.00
2023-04-26T05:35:05.186Z,508.00
2023-04-26T05:36:05.167Z,507.00
2023-04-26T05:37:05.174Z,509.00
2023-04-26T05:38:05.172Z,504.00
2023-04-26T05:39:05.182Z,504.00
2023-04-26T05:40:05.358Z,506.00
2023-04-26T05:41:05.159Z,522.00
2023-04-26T05:42:05.154Z,525.00
2023-04-26T05:43:05.113Z,538.00
2023-04-26T05:44:05.923Z,500.00
2023-04-26T05:45:05.387Z,506.00
2023-04-26T05:46:05.150Z,504.00
2023-04-26T05:47:05.101Z,519.00
2023-04-26T05:48:05.191Z,546.00
2023-04-26T05:49:05.091Z,552.00
2023-04-26T05:50:05.087Z,744.00
2023-04-26T05:51:05.107Z,730.00
2023-04-26T05:52:05.071Z,575.00
2023-04-26T05:53:05.029Z,500.00
2023-04-26T05:54:05.033Z,464.00
2023-04-26T05:55:05.397Z,500.00
2023-04-26T05:56:05.047Z,504.00
2023-04-26T05:57:05.068Z,549.00
2023-04-26T05:58:05.075Z,574.00
2023-04-26T05:59:05.013Z,605.00
2023-04-26T06:00:05.375Z,626.00
2023-04-26T06:01:05.009Z,661.00
2023-04-26T06:02:05.009Z,723.00
2023-04-26T06:03:05.114Z,757.00
2023-04-26T06:04:05.386Z,786.00
2023-04-26T06:05:05.533Z,809.00
2023-04-26T06:06:04.954Z,818.00
2023-04-26T06:07:04.946Z,793.00
2023-04-26T06:08:04.947Z,795.00
2023-04-26T06:09:04.954Z,793.00
2023-04-26T06:10:05.408Z,801.00
2023-04-26T06:11:05.017Z,806.00
2023-04-26T06:12:04.937Z,822.00
2023-04-26T06:13:04.913Z,815.00
2023-04-26T06:14:04.901Z,815.00
2023-04-26T06:15:04.900Z,850.00
2023-04-26T06:16:04.866Z,863.00
2023-04-26T06:17:04.878Z,844.00
2023-04-26T06:18:04.900Z,874.00
2023-04-26T06:19:04.948Z,854.00
2023-04-26T06:20:04.890Z,858.00
2023-04-26T06:21:04.854Z,858.00
2023-04-26T06:22:04.830Z,843.00
2023-04-26T06:23:04.866Z,852.00
2023-04-26T06:24:04.809Z,829.00
2023-04-26T06:25:05.016Z,833.00
2023-04-26T06:26:04.810Z,830.00
2023-04-26T06:27:04.777Z,839.00
2023-04-26T06:28:04.796Z,848.00
2023-04-26T06:29:04.768Z,845.00
2023-04-26T06:30:04.902Z,828.00
2023-04-26T06:31:04.806Z,850.00
2023-04-26T06:32:04.769Z,842.00
2023-04-26T06:33:04.827Z,841.00
2023-04-26T06:34:04.830Z,823.00
2023-04-26T06:35:04.946Z,827.00
2023-04-26T06:36:04.909Z,829.00
2023-04-26T06:37:04.997Z,834.00
2023-04-26T06:38:04.991Z,822.00
2023-04-26T06:39:05.021Z,833.00
2023-04-26T06:40:05.088Z,827.00
2023-04-26T06:41:05.111Z,840.00
2023-04-26T06:42:05.186Z,836.00
2023-04-26T06:43:05.234Z,846.00
2023-04-26T06:44:05.232Z,857.00
2023-04-26T06:45:05.324Z,841.00
2023-04-26T06:46:05.362Z,862.00
2023-04-26T06:47:05.406Z,833.00
2023-04-26T06:48:05.539Z,841.00
2023-04-26T06:49:05.497Z,837.00
2023-04-26T06:50:05.881Z,824.00
2023-04-26T06:51:05.623Z,806.00
2023-04-26T06:52:05.660Z,819.00
2023-04-26T06:53:05.699Z,842.00
2023-04-26T06:54:05.774Z,849.00
2023-04-26T06:55:05.791Z,860.00
2023-04-26T06:56:05.860Z,858.00
2023-04-26T06:57:05.921Z,849.00
2023-04-26T06:58:06.910Z,855.00
2023-04-26T06:59:05.989Z,840.00
2023-04-26T07:00:06.416Z,852.00
2023-04-26T07:01:06.105Z,843.00
2023-04-26T07:02:06.224Z,823.00
2023-04-26T07:03:06.301Z,819.00
2023-04-26T07:04:06.413Z,832.00
2023-04-26T07:05:06.495Z,811.00
2023-04-26T07:06:06.356Z,806.00
2023-04-26T07:07:06.373Z,787.00
2023-04-26T07:08:06.413Z,810.00
2023-04-26T07:09:06.499Z,808.00
2023-04-26T07:10:06.906Z,789.00
2023-04-26T07:11:06.592Z,793.00
2023-04-26T07:12:06.989Z,805.00
2023-04-26T07:13:09.315Z,809.00
2023-04-26T07:14:06.663Z,793.00
2023-04-26T07:15:06.681Z,775.00
2023-04-26T07:16:06.672Z,789.00
2023-04-26T07:17:06.667Z,762.00
2023-04-26T07:18:06.685Z,782.00
2023-04-26T07:19:06.668Z,764.00
2023-04-26T07:20:06.663Z,778.00
2023-04-26T07:21:06.920Z,767.00
2023-04-26T07:22:06.649Z,767.00
2023-04-26T07:23:06.639Z,754.00
2023-04-26T07:24:06.605Z,774.00
2023-04-26T07:25:06.597Z,739.00
2023-04-26T07:26:06.924Z,739.00
2023-04-26T07:27:06.780Z,737.00
2023-04-26T07:28:06.558Z,707.00
2023-04-26T07:29:06.575Z,704.00
2023-04-26T07:30:06.589Z,711.00
2023-04-26T07:31:08.800Z,699.00
2023-04-26T07:32:06.598Z,700.00
2023-04-26T07:33:06.715Z,702.00
2023-04-26T07:34:06.525Z,703.00
2023-04-26T07:35:06.535Z,694.00
2023-04-26T07:36:06.936Z,712.00
2023-04-26T07:37:06.499Z,689.00
2023-04-26T07:38:06.516Z,691.00
2023-04-26T07:39:06.494Z,655.00
2023-04-26T07:40:06.511Z,676.00
2023-04-26T07:41:06.485Z,706.00
2023-04-26T07:42:06.449Z,662.00
2023-04-26T07:43:06.455Z,603.00
2023-04-26T07:44:06.458Z,510.00
2023-04-26T07:45:06.452Z,543.00
2023-04-26T07:46:06.930Z,606.00
2023-04-26T07:47:06.461Z,670.00
2023-04-26T07:48:06.469Z,547.00
2023-04-26T07:49:06.430Z,450.00
2023-04-26T07:50:06.445Z,423.00
2023-04-26T07:51:06.501Z,400.00
2023-04-26T07:52:06.407Z,480.00
2023-04-26T07:53:06.410Z,513.00
2023-04-26T07:54:06.410Z,498.00
2023-04-26T07:55:06.542Z,522.00
2023-04-26T07:56:06.403Z,510.00
2023-04-26T07:57:06.389Z,617.00
2023-04-26T07:58:06.366Z,699.00
2023-04-26T07:59:06.359Z,845.00
2023-04-26T08:00:06.364Z,1109.00
2023-04-26T08:01:06.388Z,1169.00
2023-04-26T08:02:06.367Z,1286.00
2023-04-26T08:03:06.560Z,1425.00
2023-04-26T08:04:06.561Z,1533.00
2023-04-26T08:05:06.530Z,1568.00
2023-04-26T08:06:06.486Z,1664.00
2023-04-26T08:07:06.300Z,1749.00
2023-04-26T08:08:06.306Z,1799.00
2023-04-26T08:09:06.321Z,1875.00
2023-04-26T08:10:06.284Z,1943.00
2023-04-26T08:11:06.444Z,1994.00
2023-04-26T08:12:06.324Z,2036.00
2023-04-26T08:13:06.254Z,2093.00
2023-04-26T08:14:06.274Z,2120.00
2023-04-26T08:15:06.285Z,2159.00
2023-04-26T08:16:06.414Z,2222.00
2023-04-26T08:17:06.259Z,2261.00
2023-04-26T08:18:06.254Z,2311.00
2023-04-26T08:19:06.196Z,2347.00
2023-04-26T08:20:06.238Z,2388.00
2023-04-26T08:21:07.003Z,2413.00
2023-04-26T08:22:06.373Z,2422.00
2023-04-26T08:23:06.205Z,2468.00
2023-04-26T08:24:06.186Z,2514.00
2023-04-26T08:25:06.202Z,2559.00
2023-04-26T08:26:06.676Z,2572.00
2023-04-26T08:27:06.191Z,2603.00
2023-04-26T08:28:06.166Z,2640.00
2023-04-26T08:29:06.176Z,2672.00
2023-04-26T08:30:06.119Z,2709.00
2023-04-26T08:31:06.218Z,2742.00
2023-04-26T08:32:06.225Z,2754.00
2023-04-26T08:33:06.355Z,2793.00
2023-04-26T08:34:06.341Z,2804.00
2023-04-26T08:35:06.373Z,2816.00
2023-04-26T08:36:06.974Z,2840.00
2023-04-26T08:37:06.473Z,2852.00
2023-04-26T08:38:06.545Z,2878.00
2023-04-26T08:39:06.591Z,2895.00
2023-04-26T08:40:06.627Z,2894.00
2023-04-26T08:41:06.952Z,2919.00
2023-04-26T08:42:06.694Z,2977.00
2023-04-26T08:43:06.769Z,2988.00
2023-04-26T08:44:06.753Z,2987.00
2023-04-26T08:45:06.782Z,2990.00
2023-04-26T08:46:06.878Z,3012.00
2023-04-26T08:47:06.882Z,3026.00
2023-04-26T08:48:06.959Z,3032.00
2023-04-26T08:49:06.960Z,2670.00
2023-04-26T08:50:07.017Z,2562.00
2023-04-26T08:51:07.432Z,2435.00
2023-04-26T08:52:07.094Z,2269.00
2023-04-26T08:53:07.107Z,1940.00
2023-04-26T08:54:07.139Z,1884.00
2023-04-26T08:55:07.130Z,1878.00
2023-04-26T08:56:07.464Z,1708.00
2023-04-26T08:57:07.145Z,1780.00
2023-04-26T08:58:07.152Z,1845.00
2023-04-26T08:59:07.186Z,1937.00
2023-04-26T09:00:07.200Z,1995.00
2023-04-26T09:01:07.250Z,2099.00
2023-04-26T09:02:07.342Z,2205.00
2023-04-26T09:03:07.366Z,2131.00
2023-04-26T09:04:07.461Z,2299.00
2023-04-26T09:05:07.425Z,2414.00
2023-04-26T09:06:07.468Z,2561.00
2023-04-26T09:07:07.309Z,2511.00
2023-04-26T09:08:07.311Z,2524.00
2023-04-26T09:09:07.343Z,2567.00
2023-04-26T09:10:07.373Z,2675.00
2023-04-26T09:11:07.436Z,2691.00
2023-04-26T09:12:07.453Z,2754.00
2023-04-26T09:13:07.485Z,2781.00
2023-04-26T09:14:07.592Z,2797.00
2023-04-26T09:15:07.713Z,2836.00
2023-04-26T09:16:07.727Z,2870.00
2023-04-26T09:17:07.702Z,2900.00
2023-04-26T09:18:07.741Z,2932.00
2023-04-26T09:19:07.787Z,2930.00
2023-04-26T09:20:08.211Z,2955.00
2023-04-26T09:21:07.892Z,2996.00
2023-04-26T09:22:07.856Z,3014.00
2023-04-26T09:23:07.885Z,3039.00
2023-04-26T09:24:07.920Z,3042.00
2023-04-26T09:25:07.920Z,3073.00
2023-04-26T09:26:07.922Z,3079.00
2023-04-26T09:27:07.949Z,3084.00
2023-04-26T09:28:07.970Z,3079.00
2023-04-26T09:29:07.993Z,3105.00
2023-04-26T09:30:08.021Z,3121.00
2023-04-26T09:31:08.717Z,3133.00
2023-04-26T09:32:08.020Z,3147.00
2023-04-26T09:33:08.016Z,3160.00
2023-04-26T09:34:08.032Z,3175.00
2023-04-26T09:35:08.030Z,3174.00
2023-04-26T09:36:08.470Z,3171.00
2023-04-26T09:37:08.035Z,3167.00
2023-04-26T09:38:12.103Z,3162.00
2023-04-26T09:39:08.015Z,3163.00
2023-04-26T09:40:08.054Z,3164.00
2023-04-26T09:41:08.042Z,3170.00
2023-04-26T09:42:08.011Z,3184.00
2023-04-26T09:43:07.985Z,3216.00
2023-04-26T09:44:07.998Z,3241.00
2023-04-26T09:45:08.017Z,3229.00
2023-04-26T09:46:08.471Z,3203.00
2023-04-26T09:47:08.064Z,3228.00
2023-04-26T09:48:07.984Z,3278.00
2023-04-26T09:49:07.983Z,2306.00
2023-04-26T09:50:07.964Z,1661.00
2023-04-26T09:51:07.935Z,2011.00
2023-04-26T09:52:07.968Z,2019.00
2023-04-26T09:53:07.981Z,2105.00
2023-04-26T09:54:07.916Z,2186.00
2023-04-26T09:55:07.961Z,2297.00
2023-04-26T09:56:08.560Z,2239.00
2023-04-26T09:57:08.033Z,2230.00
2023-04-26T09:58:08.091Z,2317.00
2023-04-26T09:59:08.131Z,2338.00
2023-04-26T10:00:08.168Z,2375.00
2023-04-26T10:01:08.589Z,2419.00
2023-04-26T10:02:08.246Z,2436.00
2023-04-26T10:03:08.548Z,2424.00
2023-04-26T10:04:08.581Z,2448.00
2023-04-26T10:05:08.396Z,2460.00
2023-04-26T10:06:08.470Z,2449.00
2023-04-26T10:07:08.488Z,2458.00
2023-04-26T10:08:08.544Z,2484.00
2023-04-26T10:09:08.613Z,2448.00
2023-04-26T10:10:08.649Z,2479.00
2023-04-26T10:11:08.981Z,2481.00
2023-04-26T10:12:08.766Z,2522.00
2023-04-26T10:13:08.784Z,2544.00
2023-04-26T10:14:08.879Z,2528.00
2023-04-26T10:15:08.909Z,2563.00
2023-04-26T10:16:09.012Z,2561.00
2023-04-26T10:17:09.032Z,2562.00
2023-04-26T10:18:09.129Z,2530.00
2023-04-26T10:19:09.120Z,2490.00
2023-04-26T10:20:09.171Z,2481.00
2023-04-26T10:21:09.281Z,2462.00
2023-04-26T10:22:09.278Z,2448.00
2023-04-26T10:23:09.349Z,2454.00
2023-04-26T10:24:09.407Z,2461.00
2023-04-26T10:25:09.475Z,2437.00
2023-04-26T10:26:09.995Z,2467.00
2023-04-26T10:27:09.543Z,2425.00
2023-04-26T10:28:09.613Z,2436.00
2023-04-26T10:29:09.666Z,2428.00
2023-04-26T10:30:09.710Z,2391.00
2023-04-26T10:31:10.009Z,2348.00
2023-04-26T10:32:09.872Z,2359.00
2023-04-26T10:33:09.877Z,2350.00
2023-04-26T10:34:11.473Z,2344.00
2023-04-26T10:35:09.895Z,2344.00
2023-04-26T10:36:09.980Z,2340.00
2023-04-26T10:37:09.995Z,2325.00
2023-04-26T10:38:10.032Z,2281.00
2023-04-26T10:39:10.050Z,2283.00
2023-04-26T10:40:10.083Z,2271.00
2023-04-26T10:41:10.471Z,2256.00
2023-04-26T10:42:10.169Z,2257.00
2023-04-26T10:43:10.191Z,2268.00
2023-04-26T10:44:10.243Z,2256.00
2023-04-26T10:45:10.287Z,2269.00
2023-04-26T10:46:10.563Z,2230.00
2023-04-26T10:47:10.343Z,2235.00
2023-04-26T10:48:10.462Z,2249.00
2023-04-26T10:49:11.430Z,2247.00
2023-04-26T10:50:10.434Z,2236.00
2023-04-26T10:51:10.525Z,2226.00
2023-04-26T10:52:10.483Z,2227.00
2023-04-26T10:53:10.522Z,2218.00
2023-04-26T10:54:10.564Z,2215.00
2023-04-26T10:55:10.543Z,2216.00
2023-04-26T10:56:10.968Z,2206.00
2023-04-26T10:57:10.572Z,2195.00
2023-04-26T10:58:10.599Z,2194.00
2023-04-26T11:00:10.639Z,2180.00
2023-04-26T11:01:11.062Z,2179.00
2023-04-26T11:02:10.605Z,2188.00
2023-04-26T11:03:10.666Z,2191.00
2023-04-26T11:04:10.653Z,2167.00
2023-04-26T11:05:10.561Z,2164.00
2023-04-26T11:06:11.008Z,2140.00
2023-04-26T11:07:10.573Z,2145.00
2023-04-26T11:08:10.600Z,2123.00
2023-04-26T11:09:10.530Z,2118.00
2023-04-26T11:10:10.578Z,2116.00
2023-04-26T11:11:10.561Z,2099.00
2023-04-26T11:12:10.550Z,2087.00
2023-04-26T11:13:10.516Z,2090.00
2023-04-26T11:14:10.524Z,2107.00
2023-04-26T11:15:10.506Z,2104.00
2023-04-26T11:16:11.082Z,2086.00
2023-04-26T11:17:10.524Z,2076.00
2023-04-26T11:18:10.480Z,2070.00
2023-04-26T11:19:10.488Z,2050.00
2023-04-26T11:20:10.494Z,2060.00
2023-04-26T11:21:10.484Z,2042.00
2023-04-26T11:22:10.438Z,2038.00
2023-04-26T11:23:10.482Z,2038.00
2023-04-26T11:24:10.448Z,2031.00
2023-04-26T11:25:10.419Z,2018.00
2023-04-26T11:26:10.533Z,2020.00
2023-04-26T11:27:10.421Z,2024.00
2023-04-26T11:28:10.427Z,2033.00
2023-04-26T11:29:10.417Z,2016.00
2023-04-26T11:30:10.385Z,2029.00
2023-04-26T11:31:10.551Z,2012.00
2023-04-26T11:32:10.364Z,1993.00
2023-04-26T11:33:10.468Z,2003.00
2023-04-26T11:34:10.353Z,1984.00
2023-04-26T11:35:10.366Z,1996.00
2023-04-26T11:36:11.516Z,1967.00
2023-04-26T11:37:10.496Z,1972.00
2023-04-26T11:38:10.343Z,1936.00
2023-04-26T11:39:11.586Z,1904.00
2023-04-26T11:40:10.372Z,1964.00
2023-04-26T11:41:10.371Z,1921.00
2023-04-26T11:42:10.310Z,1867.00
2023-04-26T11:43:10.287Z,1865.00
2023-04-26T11:44:11.040Z,1848.00
2023-04-26T11:45:10.297Z,1797.00
2023-04-26T11:46:10.571Z,1730.00
2023-04-26T11:47:10.330Z,1657.00
2023-04-26T11:48:10.318Z,1659.00
2023-04-26T11:49:10.316Z,1649.00
2023-04-26T11:50:10.277Z,1591.00
2023-04-26T11:51:10.276Z,1608.00
2023-04-26T11:52:10.255Z,1595.00
2023-04-26T11:53:10.245Z,1557.00
2023-04-26T11:54:10.229Z,1544.00
2023-04-26T11:55:10.301Z,1509.00
2023-04-26T11:56:10.228Z,1542.00
2023-04-26T11:57:10.213Z,1505.00
2023-04-26T11:58:10.193Z,1477.00
2023-04-26T11:59:10.200Z,1459.00
2023-04-26T12:00:10.170Z,1452.00
2023-04-26T12:01:10.184Z,1412.00
2023-04-26T12:02:10.236Z,1429.00
2023-04-26T12:03:10.463Z,1407.00
2023-04-26T12:04:10.407Z,1393.00
2023-04-26T12:05:10.324Z,1392.00
2023-04-26T12:06:10.175Z,1356.00
2023-04-26T12:07:10.132Z,1326.00
2023-04-26T12:08:10.124Z,1302.00
2023-04-26T12:09:10.122Z,1320.00
2023-04-26T12:10:10.094Z,1305.00
2023-04-26T12:11:10.100Z,1281.00
2023-04-26T12:12:10.106Z,1275.00
2023-04-26T12:13:10.091Z,1258.00
2023-04-26T12:14:10.338Z,1296.00
2023-04-26T12:15:10.081Z,1269.00
2023-04-26T12:16:22.199Z,1258.00
2023-04-26T12:17:11.108Z,1260.00
2023-04-26T12:18:10.388Z,1263.00
2023-04-26T12:19:10.052Z,1277.00
2023-04-26T12:20:10.033Z,1292.00
2023-04-26T12:21:10.017Z,1322.00
2023-04-26T12:22:10.001Z,1293.00